Weather at Pinellas County Mosquito Control Heliport

Public forecast

Using degrees Fahrenheit for public forecast. Weather courtesy of forecast.io.

Closest aviation weather report (METAR) to Pinellas County Mosquito Control Heliport

Closest report is St Petersburg Clearwater International Airport, 2.1 nm (3.9 km) N. Retrieved 2020/11/23 14:53 UTC (25 minutes ago):

KPIE 231453Z 02008KT 10SM SCT008 22/18 A3012 RMK AO2 SLP199 T02170183 51015

Closest aviation forecast (TAF) to Pinellas County Mosquito Control Heliport

Closest forecast is St Petersburg Clearwater International Airport, 2.1 nm (3.9 km) N. Retrieved 2020/11/23 12:24 UTC (3 hours ago):

TAF KPIE 231122Z 2312/2412 VRB05KT P6SM OVC006 FM231300 01006KT P6SM SCT007 BKN015 FM231500 01008KT P6SM SCT010 BKN035 FM231800 35008KT P6SM FEW040 FM240200 02007KT P6SM SKC